Time;durP1;ratioP1;P1;durP2;ratioP2;P2;SDS_P1;SDS_P2;PMS_P1;PMS_P2;Temp;Humidity;BMP_temperature;BMP_pressure;BME280_temperature;BME280_humidity;BME280_pressure;Samples;Min_cycle;Max_cycle;Signal;HPM_P1;HPM_P2
2022/04/27 00:01:44;;;;;;;3.85;2.72;;;;;;;8.02;69.09;102554.09;5066043;28;20087;-79
2022/04/27 00:04:09;;;;;;;3.92;3.40;;;;;;;7.99;69.25;102551.47;5034650;28;20028;-79
2022/04/27 00:06:35;;;;;;;3.38;3.08;;;;;;;7.97;69.35;102545.41;5033596;28;20332;-79
2022/04/27 00:09:00;;;;;;;6.57;3.28;;;;;;;7.93;69.36;102546.28;5065016;28;20044;-79
2022/04/27 00:11:26;;;;;;;3.78;3.15;;;;;;;7.92;69.51;102547.16;5067100;28;20032;-79
2022/04/27 00:13:51;;;;;;;3.78;3.17;;;;;;;7.92;69.45;102551.50;5050642;28;20048;-79
2022/04/27 00:16:17;;;;;;;3.30;3.08;;;;;;;7.89;69.58;102541.94;5041300;28;20039;-79
2022/04/27 00:18:42;;;;;;;3.53;3.22;;;;;;;7.86;69.54;102544.56;5056223;28;20128;-79
2022/04/27 00:21:08;;;;;;;4.07;3.38;;;;;;;7.84;69.57;102543.69;5064092;28;20076;-79
2022/04/27 00:23:34;;;;;;;3.72;3.03;;;;;;;7.83;69.57;102547.16;5067806;28;20111;-79
2022/04/27 00:25:59;;;;;;;3.88;3.42;;;;;;;7.81;69.50;102548.91;5045606;28;20060;-79
2022/04/27 00:28:25;;;;;;;3.78;3.45;;;;;;;7.78;69.63;102541.94;5076037;28;20032;-80
2022/04/27 00:30:51;;;;;;;4.90;3.40;;;;;;;7.77;69.63;102542.84;5058635;28;20348;-79
2022/04/27 00:33:16;;;;;;;3.67;3.13;;;;;;;7.76;69.56;102548.06;5057760;28;20095;-79
2022/04/27 00:35:42;;;;;;;3.88;3.58;;;;;;;7.75;69.85;102551.53;5058693;28;20359;-79
2022/04/27 00:38:08;;;;;;;3.28;3.00;;;;;;;7.72;69.89;102549.78;5075648;28;20079;-79
2022/04/27 00:40:33;;;;;;;3.40;3.20;;;;;;;7.70;69.91;102548.94;5054825;28;20036;-79
2022/04/27 00:42:59;;;;;;;3.25;3.00;;;;;;;7.69;70.01;102540.25;5036559;28;20395;-79
2022/04/27 00:45:24;;;;;;;3.28;2.97;;;;;;;7.68;69.79;102555.91;5058026;28;20036;-79
2022/04/27 00:47:50;;;;;;;3.65;3.35;;;;;;;7.65;69.84;102546.31;5057797;28;20332;-79
2022/04/27 00:50:15;;;;;;;2.95;2.75;;;;;;;7.64;69.92;102555.03;5057968;28;20104;-79
2022/04/27 00:52:41;;;;;;;3.80;3.35;;;;;;;7.62;69.95;102553.28;5076002;28;20046;-79
2022/04/27 00:55:08;;;;;;;3.53;3.25;;;;;;;7.60;69.96;102552.41;5041556;28;20036;-79
2022/04/27 00:57:33;;;;;;;5.13;3.58;;;;;;;7.58;69.83;102554.16;5075892;28;20377;-79
2022/04/27 00:59:59;;;;;;;3.95;3.40;;;;;;;7.56;70.18;102556.75;5058122;28;20036;-79
2022/04/27 01:02:25;;;;;;;3.45;3.10;;;;;;;7.55;69.85;102559.38;5076473;28;20048;-79
2022/04/27 01:04:50;;;;;;;5.03;3.50;;;;;;;7.53;70.04;102553.28;5058796;28;20024;-79
2022/04/27 01:07:16;;;;;;;3.70;3.17;;;;;;;7.49;70.10;102550.69;5079375;28;20336;-79
2022/04/27 01:09:42;;;;;;;3.60;3.30;;;;;;;7.48;70.11;102553.31;5061874;28;20260;-79
2022/04/27 01:12:08;;;;;;;3.60;3.30;;;;;;;7.45;70.04;102551.53;5079223;28;20040;-79
2022/04/27 01:14:42;;;;;;;5.53;3.10;;;;;;;7.44;70.16;102548.94;5079169;28;20021;-79
2022/04/27 01:17:08;;;;;;;5.07;3.60;;;;;;;7.42;70.04;102550.69;5067672;28;20217;-79
2022/04/27 01:19:33;;;;;;;4.57;3.40;;;;;;;7.40;70.42;102555.03;5078829;28;20173;-79
2022/04/27 01:21:59;;;;;;;3.97;3.42;;;;;;;7.38;70.20;102554.16;5044957;28;20086;-79
2022/04/27 01:24:25;;;;;;;3.65;3.35;;;;;;;7.36;70.24;102556.75;5061453;28;20099;-79
2022/04/27 01:26:52;;;;;;;4.45;3.35;;;;;;;7.34;70.38;102550.69;5045375;28;20036;-79
2022/04/27 01:29:19;;;;;;;3.65;3.22;;;;;;;7.33;70.32;102551.56;5074719;28;20017;-79
2022/04/27 01:31:45;;;;;;;4.60;3.35;;;;;;;7.30;70.26;102555.03;5079830;28;20040;-79
2022/04/27 01:34:11;;;;;;;3.63;3.33;;;;;;;7.29;70.36;102552.41;5067746;28;20067;-79
2022/04/27 01:36:37;;;;;;;3.83;3.53;;;;;;;7.28;70.42;102554.16;5033256;28;20037;-79
2022/04/27 01:39:03;;;;;;;3.95;3.65;;;;;;;7.26;70.25;102560.25;5060865;28;20248;-79
2022/04/27 01:41:28;;;;;;;5.45;4.60;;;;;;;7.24;70.47;102560.25;5078765;28;20085;-79
2022/04/27 01:43:54;;;;;;;3.85;3.50;;;;;;;7.22;70.54;102563.69;5043057;28;20044;-79
2022/04/27 01:46:19;;;;;;;3.65;3.35;;;;;;;7.20;70.32;102568.91;5059302;28;20052;-79
2022/04/27 01:48:45;;;;;;;3.92;3.63;;;;;;;7.19;70.49;102568.94;5035005;28;20036;-79
2022/04/27 01:51:11;;;;;;;3.97;3.55;;;;;;;7.16;70.48;102561.97;5061330;28;20101;-79
2022/04/27 01:56:20;;;;;;;3.83;3.53;;;;;;;7.14;70.56;102575.88;5079327;28;20094;-79
2022/04/27 01:58:46;;;;;;;4.75;3.72;;;;;;;7.11;70.57;102574.13;5077851;28;20032;-79
2022/04/27 02:01:12;;;;;;;3.88;3.53;;;;;;;7.09;70.54;102568.94;5027770;28;20036;-79
2022/04/27 02:03:39;;;;;;;3.22;3.03;;;;;;;7.08;70.72;102575.00;5062422;28;20356;-79
2022/04/27 02:06:05;;;;;;;3.60;3.30;;;;;;;7.07;70.74;102578.44;5060468;28;20040;-79
2022/04/27 02:08:31;;;;;;;3.20;3.00;;;;;;;7.05;70.67;102574.97;5077081;28;20443;-79
2022/04/27 02:10:56;;;;;;;3.35;3.05;;;;;;;7.04;70.80;102575.84;5078504;28;20044;-79
2022/04/27 02:13:21;;;;;;;5.03;3.53;;;;;;;7.03;70.85;102579.31;5060311;28;20239;-79
2022/04/27 02:15:47;;;;;;;3.58;3.35;;;;;;;7.02;71.03;102580.19;5060466;28;20248;-79
2022/04/27 02:18:12;;;;;;;3.97;3.67;;;;;;;7.00;70.92;102578.44;5056961;28;20319;-79
2022/04/27 02:20:38;;;;;;;3.92;3.58;;;;;;;7.00;71.08;102586.25;5054947;28;20032;-79
2022/04/27 02:23:03;;;;;;;4.10;3.70;;;;;;;6.99;70.95;102590.59;5078355;28;20504;-79
2022/04/27 02:25:29;;;;;;;4.90;3.80;;;;;;;6.98;70.99;102590.59;5040148;28;20320;-79
2022/04/27 02:27:55;;;;;;;4.20;3.80;;;;;;;6.96;71.02;102590.59;5033919;28;20058;-79
2022/04/27 02:30:21;;;;;;;3.83;3.53;;;;;;;6.95;71.11;102594.06;5047988;28;20048;-79
2022/04/27 02:32:46;;;;;;;4.85;3.55;;;;;;;6.95;71.02;102595.78;5031802;28;20047;-79
2022/04/27 02:35:14;;;;;;;4.00;3.70;;;;;;;6.94;71.15;102586.25;5059920;28;20089;-79
2022/04/27 02:37:40;;;;;;;4.65;4.25;;;;;;;6.92;71.27;102592.31;5044128;28;20020;-79
2022/04/27 02:40:08;;;;;;;4.95;4.55;;;;;;;6.93;71.25;102598.41;5077323;28;20079;-79
2022/04/27 02:42:33;;;;;;;4.95;4.55;;;;;;;6.91;71.29;102589.69;5046407;28;20064;-79
2022/04/27 02:44:59;;;;;;;4.93;4.13;;;;;;;6.90;71.33;102590.59;5059358;28;20595;-79
2022/04/27 02:47:25;;;;;;;6.60;4.50;;;;;;;6.90;71.34;102594.06;5077776;28;20256;-79
2022/04/27 02:52:34;;;;;;;4.90;4.40;;;;;;;6.88;71.56;102601.00;5077663;28;20032;-79
2022/04/27 02:55:00;;;;;;;5.13;4.55;;;;;;;6.87;71.49;102593.16;5039990;28;20047;-79
2022/04/27 02:57:25;;;;;;;4.97;4.47;;;;;;;6.84;71.44;102596.66;5077533;28;20032;-79
2022/04/27 02:59:51;;;;;;;5.13;4.57;;;;;;;6.83;71.55;102601.84;5060284;28;20359;-79
2022/04/27 03:02:17;;;;;;;5.18;4.70;;;;;;;6.82;71.84;102594.88;5058444;28;20371;-79
2022/04/27 03:04:43;;;;;;;5.15;4.75;;;;;;;6.81;71.64;102600.97;5040129;28;20066;-79
2022/04/27 03:07:09;;;;;;;6.53;4.55;;;;;;;6.79;71.59;102590.56;5056244;28;20043;-79
2022/04/27 03:09:34;;;;;;;5.13;4.72;;;;;;;6.79;71.66;102598.38;5023787;28;20033;-79
2022/04/27 03:12:00;;;;;;;5.53;4.57;;;;;;;6.79;71.62;102597.50;5059256;28;20040;-79
2022/04/27 03:14:25;;;;;;;5.50;4.53;;;;;;;6.78;71.63;102601.81;5039524;28;20043;-79
2022/04/27 03:16:52;;;;;;;4.97;4.50;;;;;;;6.76;71.63;102597.47;5059422;28;20032;-79
2022/04/27 03:19:18;;;;;;;4.82;4.43;;;;;;;6.76;71.50;102600.09;5070703;28;20028;-79
2022/04/27 03:21:44;;;;;;;5.65;5.15;;;;;;;6.73;71.83;102595.72;5074616;28;20344;-79
2022/04/27 03:24:09;;;;;;;5.65;5.15;;;;;;;6.72;71.62;102604.41;5042951;28;20037;-79
2022/04/27 03:26:35;;;;;;;7.00;5.40;;;;;;;6.71;71.49;102600.94;5058288;28;20044;-79
2022/04/27 03:29:00;;;;;;;5.22;4.80;;;;;;;6.70;71.40;102601.81;5059291;28;20039;-79
2022/04/27 03:31:25;;;;;;;5.55;5.15;;;;;;;6.68;71.75;102598.31;5058856;28;20368;-79
2022/04/27 03:33:51;;;;;;;5.57;5.07;;;;;;;6.66;71.75;102605.25;5059352;28;20328;-79
2022/04/27 03:36:17;;;;;;;7.32;5.20;;;;;;;6.66;71.82;102596.59;5054819;28;20037;-79
2022/04/27 03:38:43;;;;;;;5.68;5.05;;;;;;;6.64;71.98;102598.28;5039506;28;20098;-79
2022/04/27 03:41:10;;;;;;;6.00;5.45;;;;;;;6.63;71.96;102591.38;5073168;28;20044;-79
2022/04/27 03:43:36;;;;;;;5.97;5.38;;;;;;;6.63;72.27;102596.56;5058659;28;20123;-79
2022/04/27 03:46:01;;;;;;;8.57;5.32;;;;;;;6.62;71.98;102600.03;5025586;28;20270;-79
2022/04/27 03:48:27;;;;;;;6.75;5.28;;;;;;;6.62;72.00;102602.63;5076779;28;20382;-79
2022/04/27 03:50:52;;;;;;;5.53;5.13;;;;;;;6.61;72.05;102601.78;5072851;28;20041;-79
2022/04/27 03:53:18;;;;;;;5.78;5.15;;;;;;;6.59;71.99;102595.69;5052185;28;20090;-79
2022/04/27 03:55:43;;;;;;;5.05;4.65;;;;;;;6.58;72.08;102603.47;5076709;28;20036;-79
2022/04/27 03:58:09;;;;;;;4.78;4.38;;;;;;;6.55;72.36;102599.16;5058914;28;20229;-79
2022/04/27 04:00:34;;;;;;;5.10;4.70;;;;;;;6.54;72.12;102600.84;5041745;28;20120;-79
2022/04/27 04:03:01;;;;;;;5.25;4.78;;;;;;;6.54;71.95;102600.84;5076573;28;20232;-79
2022/04/27 04:05:27;;;;;;;5.47;4.90;;;;;;;6.54;72.02;102600.00;5073927;28;20052;-79
2022/04/27 04:07:52;;;;;;;6.00;4.82;;;;;;;6.53;72.03;102600.84;5075032;28;20036;-79
2022/04/27 04:10:18;;;;;;;5.70;5.10;;;;;;;6.53;72.09;102612.16;5055572;28;20032;-79
2022/04/27 04:12:45;;;;;;;5.47;4.35;;;;;;;6.52;72.42;102609.53;5057892;28;20017;-79
2022/04/27 04:15:11;;;;;;;6.07;4.78;;;;;;;6.52;72.30;102609.53;5044792;28;20048;-79
2022/04/27 04:17:36;;;;;;;5.60;5.05;;;;;;;6.51;72.46;102608.69;5056997;28;20071;-79
2022/04/27 04:20:02;;;;;;;7.10;5.18;;;;;;;6.50;72.41;102604.31;5056506;28;20259;-79
2022/04/27 04:22:27;;;;;;;7.20;4.90;;;;;;;6.50;72.42;102604.31;5056769;28;20279;-79
2022/04/27 04:30:20;;;;;;;10.75;5.65;;;;;;;6.48;72.50;102613.00;5059613;28;20077;-79
2022/04/27 04:32:46;;;;;;;7.47;5.32;;;;;;;6.47;72.36;102611.25;5027922;28;20126;-79
2022/04/27 04:35:11;;;;;;;6.22;5.63;;;;;;;6.46;72.64;102618.19;5055700;28;20033;-79
2022/04/27 04:37:37;;;;;;;6.28;4.85;;;;;;;6.45;72.62;102621.66;5056627;28;20040;-79
2022/04/27 04:40:02;;;;;;;6.13;5.50;;;;;;;6.44;72.63;102625.13;5077003;28;20048;-79
2022/04/27 04:42:28;;;;;;;5.00;4.60;;;;;;;6.45;72.69;102637.25;5075201;28;20051;-79
2022/04/27 04:44:53;;;;;;;5.70;5.20;;;;;;;6.46;72.63;102638.16;5068276;28;20352;-79
2022/04/27 04:47:18;;;;;;;5.70;5.20;;;;;;;6.44;72.62;102637.25;5077732;28;20060;-79
2022/04/27 04:49:44;;;;;;;9.15;5.22;;;;;;;6.47;72.96;102645.09;5057732;28;20037;-79
2022/04/27 04:52:10;;;;;;;5.50;5.00;;;;;;;6.46;73.04;102659.84;5044242;28;20048;-79
2022/04/27 04:54:36;;;;;;;5.90;5.40;;;;;;;6.47;72.90;102650.28;5052501;28;20331;-79
2022/04/27 04:57:02;;;;;;;5.28;4.80;;;;;;;6.49;73.02;102652.06;5056968;28;20499;-79
2022/04/27 04:59:27;;;;;;;4.95;4.38;;;;;;;6.51;72.89;102652.03;5040697;28;20308;-79
2022/04/27 05:01:53;;;;;;;4.65;4.32;;;;;;;6.52;72.87;102654.66;5071962;28;20040;-79
2022/04/27 05:04:18;;;;;;;5.30;4.55;;;;;;;6.54;72.91;102652.06;5078206;28;20096;-79
2022/04/27 05:06:44;;;;;;;5.82;5.20;;;;;;;6.54;72.99;102652.91;5057082;28;20040;-79
2022/04/27 05:09:10;;;;;;;5.63;5.13;;;;;;;6.59;73.11;102662.50;5057295;28;20082;-79
2022/04/27 05:11:35;;;;;;;5.90;5.28;;;;;;;6.61;73.01;102672.06;5059670;28;20032;-79
2022/04/27 05:14:01;;;;;;;5.43;4.93;;;;;;;6.64;73.05;102671.19;5078227;28;20090;-79
2022/04/27 05:16:27;;;;;;;4.85;4.45;;;;;;;6.65;73.06;102667.75;5059213;28;20404;-79
2022/04/27 05:18:52;;;;;;;4.75;4.35;;;;;;;6.67;73.09;102666.88;5078261;28;20273;-79
2022/04/27 05:21:18;;;;;;;5.40;4.50;;;;;;;6.70;73.08;102674.72;5038873;28;20025;-79
2022/04/27 05:23:43;;;;;;;4.57;4.18;;;;;;;6.71;73.46;102681.66;5076255;28;20367;-79
2022/04/27 05:26:11;;;;;;;4.78;4.38;;;;;;;6.73;73.27;102679.94;5042984;28;20070;-79
2022/04/27 05:34:04;;;;;;;5.35;4.95;;;;;;;6.79;73.92;102686.03;5077494;28;20358;-79
2022/04/27 05:36:29;;;;;;;5.43;4.85;;;;;;;6.82;74.29;102693.84;5043422;28;20040;-79
2022/04/27 05:38:55;;;;;;;5.70;4.60;;;;;;;6.83;74.42;102687.78;5040430;28;20048;-79
2022/04/27 05:41:21;;;;;;;6.60;5.97;;;;;;;6.85;74.64;102688.66;5057740;28;20033;-79
2022/04/27 05:43:47;;;;;;;5.88;5.20;;;;;;;6.87;74.77;102695.59;5054826;28;20255;-79
2022/04/27 05:46:12;;;;;;;6.38;5.30;;;;;;;6.90;74.94;102697.38;5076356;28;20107;-79
2022/04/27 05:48:37;;;;;;;5.55;5.10;;;;;;;6.93;75.01;102713.03;5075044;28;20055;-79
2022/04/27 05:51:03;;;;;;;5.90;5.30;;;;;;;6.95;75.36;102699.97;5057899;28;20078;-79
2022/04/27 05:53:28;;;;;;;6.22;5.63;;;;;;;6.97;75.50;102704.34;5075223;28;20313;-79
2022/04/27 05:55:54;;;;;;;6.43;5.30;;;;;;;7.00;75.69;102703.47;5053548;28;20116;-79
2022/04/27 05:58:19;;;;;;;8.15;6.63;;;;;;;7.01;75.76;102706.09;5047508;28;20355;-79
2022/04/27 06:00:46;;;;;;;7.22;6.25;;;;;;;7.04;76.03;102707.84;5049472;28;20078;-79
2022/04/27 06:03:11;;;;;;;6.88;6.18;;;;;;;7.06;76.16;102708.75;5052420;28;20386;-79
2022/04/27 06:05:37;;;;;;;7.85;6.47;;;;;;;7.08;76.56;102717.44;5052004;28;20032;-79
2022/04/27 06:08:02;;;;;;;7.68;5.80;;;;;;;7.10;76.55;102713.94;5058321;28;20205;-79
2022/04/27 06:10:28;;;;;;;6.22;5.50;;;;;;;7.15;76.69;102724.41;5057344;28;20061;-79
2022/04/27 06:12:54;;;;;;;7.55;5.88;;;;;;;7.18;76.87;102720.91;5054902;28;20051;-79
2022/04/27 06:15:19;;;;;;;5.85;5.35;;;;;;;7.19;77.14;102720.94;5040409;28;20032;-79
2022/04/27 06:17:44;;;;;;;7.88;6.03;;;;;;;7.22;77.21;102722.66;5057523;28;20344;-79
2022/04/27 06:20:10;;;;;;;8.43;6.22;;;;;;;7.24;77.35;102721.81;5067687;28;20044;-79
2022/04/27 06:22:36;;;;;;;8.77;7.05;;;;;;;7.27;77.48;102732.25;5057365;28;20040;-79
2022/04/27 06:25:03;;;;;;;8.55;6.63;;;;;;;7.29;77.90;102725.31;5058276;28;20048;-79
2022/04/27 06:27:29;;;;;;;8.18;6.72;;;;;;;7.32;78.07;102732.28;5041132;28;20048;-79
2022/04/27 06:29:55;;;;;;;7.28;6.53;;;;;;;7.35;78.18;102734.00;5057763;28;20034;-79
2022/04/27 06:32:20;;;;;;;8.18;7.22;;;;;;;7.37;78.27;102742.69;5036573;28;20038;-79
2022/04/27 06:34:46;;;;;;;8.52;6.50;;;;;;;7.39;78.21;102734.03;5055656;28;20063;-79
2022/04/27 06:37:11;;;;;;;9.13;7.30;;;;;;;7.41;78.43;102734.91;5057418;28;20236;-79
2022/04/27 06:39:38;;;;;;;7.57;6.43;;;;;;;7.45;78.87;102735.78;5034299;28;20235;-79
2022/04/27 06:42:05;;;;;;;9.43;6.43;;;;;;;7.46;78.98;102738.41;5075170;28;20043;-79
2022/04/27 06:44:30;;;;;;;9.90;6.80;;;;;;;7.50;78.93;102741.88;5063246;28;290198;-79
2022/04/27 06:46:56;;;;;;;7.38;6.68;;;;;;;7.53;79.24;102741.91;5042447;28;20043;-79
2022/04/27 06:49:21;;;;;;;9.25;7.25;;;;;;;7.57;79.60;102745.38;5072520;28;20059;-79
2022/04/27 06:51:46;;;;;;;11.52;7.88;;;;;;;7.58;79.75;102742.75;5073205;28;20206;-79
2022/04/27 06:54:12;;;;;;;9.80;7.07;;;;;;;7.62;79.96;102741.03;5053597;28;20040;-79
2022/04/27 06:56:37;;;;;;;13.10;7.15;;;;;;;7.62;80.90;102743.63;5075137;28;20040;-79
2022/04/27 06:59:02;;;;;;;7.85;6.28;;;;;;;7.62;81.05;102751.47;5057807;28;20037;-79
2022/04/27 07:01:28;;;;;;;9.43;7.05;;;;;;;7.66;80.88;102745.41;5068038;28;20094;-79
2022/04/27 07:03:55;;;;;;;7.65;6.80;;;;;;;7.69;80.84;102754.09;5066946;28;20312;-79
2022/04/27 07:06:22;;;;;;;6.28;5.75;;;;;;;7.73;80.68;102754.09;5068257;28;20044;-79
2022/04/27 07:08:48;;;;;;;7.40;5.93;;;;;;;7.76;80.47;102756.72;5075032;28;20044;-79
2022/04/27 07:11:14;;;;;;;8.73;6.80;;;;;;;7.79;80.31;102759.34;5049357;28;20337;-79
2022/04/27 07:13:39;;;;;;;6.22;5.63;;;;;;;7.80;80.46;102759.31;5031353;28;20037;-79
2022/04/27 07:16:05;;;;;;;8.05;5.80;;;;;;;7.84;80.38;102766.28;5058691;28;20042;-79
2022/04/27 07:18:32;;;;;;;8.48;6.90;;;;;;;7.86;80.40;102767.16;5056795;28;20063;-79
2022/04/27 07:20:57;;;;;;;11.75;6.72;;;;;;;7.89;80.54;102774.13;5066655;28;20094;-79
2022/04/27 07:23:23;;;;;;;9.00;6.45;;;;;;;7.92;80.28;102770.66;5058529;28;20040;-79
2022/04/27 07:25:48;;;;;;;8.63;6.50;;;;;;;7.94;80.08;102781.97;5059341;28;20096;-79
2022/04/27 07:28:14;;;;;;;8.05;5.78;;;;;;;7.95;79.91;102781.97;5058643;28;20360;-79
2022/04/27 07:30:39;;;;;;;7.55;5.72;;;;;;;7.96;79.77;102781.06;5058056;28;20040;-79
2022/04/27 07:33:05;;;;;;;5.40;4.90;;;;;;;7.99;79.22;102788.06;5047055;28;20040;-79
2022/04/27 07:35:33;;;;;;;24.95;6.65;;;;;;;8.03;79.11;102781.97;5053839;28;20063;-87
2022/04/27 07:37:58;;;;;;;46.15;8.80;;;;;;;8.10;79.14;102793.28;5074083;28;20347;-79
2022/04/27 07:40:24;;;;;;;33.92;6.30;;;;;;;8.13;78.78;102794.16;5052236;28;20032;-78
2022/04/27 07:42:49;;;;;;;14.00;3.83;;;;;;;8.13;76.55;102795.88;5073945;28;20048;-78
2022/04/27 07:45:15;;;;;;;6.50;3.53;;;;;;;8.11;74.51;102792.41;5039481;28;20302;-79
2022/04/27 07:47:45;;;;;;;6.00;3.90;;;;;;;8.10;73.61;102795.91;5039898;28;20103;-79
2022/04/27 07:50:14;;;;;;;3.35;3.00;;;;;;;8.14;74.11;102797.63;5074110;28;20406;-79
2022/04/27 07:52:40;;;;;;;5.38;3.40;;;;;;;8.15;74.29;102794.13;5074019;28;20408;-78
2022/04/27 07:55:06;;;;;;;6.55;3.22;;;;;;;8.19;74.15;102802.00;5073117;28;20108;-78
2022/04/27 07:57:33;;;;;;;4.25;2.92;;;;;;;8.21;74.01;102802.00;5052866;28;20060;-79
2022/04/27 07:59:59;;;;;;;4.15;2.95;;;;;;;8.24;72.22;102801.97;5073888;28;20068;-79
2022/04/27 08:02:24;;;;;;;2.65;2.28;;;;;;;8.26;72.44;102802.88;5052690;28;20037;-78
2022/04/27 08:04:50;;;;;;;4.82;2.63;;;;;;;8.31;72.37;102800.25;5060572;28;20030;-79
2022/04/27 08:07:15;;;;;;;3.42;2.30;;;;;;;8.35;72.23;102796.75;5054705;28;20056;-79
2022/04/27 08:09:41;;;;;;;4.20;2.85;;;;;;;8.38;71.97;102799.38;5039761;28;20035;-78
2022/04/27 08:12:06;;;;;;;2.63;2.42;;;;;;;8.40;71.12;102800.25;5056059;28;20411;-78
2022/04/27 08:14:33;;;;;;;2.40;2.20;;;;;;;8.45;71.38;102817.69;5061061;28;20044;-79
2022/04/27 08:16:59;;;;;;;1.67;1.58;;;;;;;8.45;70.45;102816.81;5058154;28;20048;-79
2022/04/27 08:19:24;;;;;;;3.70;1.90;;;;;;;8.46;69.81;102823.78;5052578;28;20036;-79
2022/04/27 08:21:50;;;;;;;1.80;1.70;;;;;;;8.49;69.93;102822.91;5043379;28;20048;-78
2022/04/27 08:24:18;;;;;;;2.28;1.70;;;;;;;8.50;69.07;102822.91;5074453;28;20044;-78
2022/04/27 08:26:44;;;;;;;2.10;1.90;;;;;;;8.53;69.00;102819.41;5074950;28;20043;-79
2022/04/27 08:29:10;;;;;;;2.28;1.70;;;;;;;8.56;68.96;102828.13;5055115;28;20040;-78
2022/04/27 08:31:35;;;;;;;3.25;1.60;;;;;;;8.59;68.51;102825.53;5055699;28;20085;-79
2022/04/27 08:34:01;;;;;;;2.00;1.60;;;;;;;8.60;67.67;102829.00;5074621;28;20423;-78
2022/04/27 08:36:26;;;;;;;2.20;2.00;;;;;;;8.60;67.59;102829.88;5074127;28;20103;-79
2022/04/27 08:38:51;;;;;;;4.50;2.15;;;;;;;8.61;67.81;102826.38;5056311;28;20048;-79
2022/04/27 08:41:17;;;;;;;2.88;2.53;;;;;;;8.62;67.18;102830.75;5069424;28;20044;-79
2022/04/27 08:43:43;;;;;;;2.95;2.60;;;;;;;8.64;66.53;102834.22;5057372;28;20048;-79
2022/04/27 08:46:08;;;;;;;2.67;2.47;;;;;;;8.70;67.33;102832.50;5071109;28;20040;-79
2022/04/27 08:48:34;;;;;;;6.07;2.72;;;;;;;8.73;67.38;102828.13;5037279;28;20039;-79
2022/04/27 08:51:03;;;;;;;5.30;2.33;;;;;;;8.76;66.75;102835.09;5070092;28;20036;-79
2022/04/27 08:53:29;;;;;;;3.28;3.05;;;;;;;8.79;66.82;102835.09;5070711;28;20044;-78
2022/04/27 08:55:55;;;;;;;3.40;2.80;;;;;;;8.79;66.14;102837.69;5074797;28;20039;-79
2022/04/27 08:58:23;;;;;;;5.63;2.58;;;;;;;8.81;66.31;102835.94;5057009;28;20342;-79
2022/04/27 09:00:49;;;;;;;3.30;2.10;;;;;;;8.82;64.78;102840.28;5057714;28;20036;-79
2022/04/27 09:03:38;;;;;;;3.03;2.20;;;;;;;8.82;63.59;102842.91;5073548;28;20040;-79
2022/04/27 09:06:12;;;;;;;2.92;2.03;;;;;;;8.84;63.90;102839.44;5075194;28;20047;-79
2022/04/27 09:08:52;;;;;;;4.47;2.50;;;;;;;8.88;63.75;102849.84;5054463;28;20070;-79
2022/04/27 09:11:17;;;;;;;2.65;2.45;;;;;;;8.89;64.56;102841.16;5050277;28;20365;-79
2022/04/27 09:13:48;;;;;;;2.85;2.65;;;;;;;8.89;65.16;102849.00;5071841;28;20037;-78
2022/04/27 09:16:14;;;;;;;3.17;2.70;;;;;;;8.88;64.87;102853.38;5052357;28;20032;-78
2022/04/27 09:21:53;;;;;;;14.57;3.60;;;;;;;8.92;64.92;102849.88;5059483;28;20056;-79
2022/04/27 09:24:18;;;;;;;7.88;3.22;;;;;;;8.91;64.59;102863.78;5052229;28;20248;-79
2022/04/27 09:26:43;;;;;;;5.63;3.28;;;;;;;8.91;64.07;102850.72;5075452;28;20044;-78
2022/04/27 09:29:22;;;;;;;3.70;3.20;;;;;;;8.90;64.10;102853.38;5053149;28;20213;-78
2022/04/27 09:31:57;;;;;;;6.65;3.42;;;;;;;8.91;64.33;102853.34;5077932;28;20134;-79
2022/04/27 09:34:29;;;;;;;3.95;3.45;;;;;;;8.94;64.38;102855.94;5075098;28;20220;-79
2022/04/27 09:36:57;;;;;;;3.90;3.60;;;;;;;8.95;64.39;102862.03;5075720;28;20062;-79
2022/04/27 09:39:26;;;;;;;9.57;3.70;;;;;;;8.93;64.56;102859.47;5075347;28;20028;-78
2022/04/27 09:41:52;;;;;;;3.65;2.80;;;;;;;8.97;64.92;102868.16;5070280;28;20032;-79
2022/04/27 09:44:31;;;;;;;5.95;3.70;;;;;;;8.97;64.13;102870.78;5073877;28;20059;-78
2022/04/27 09:47:03;;;;;;;3.42;3.22;;;;;;;8.96;63.67;102864.66;5054968;28;20346;-78
2022/04/27 09:49:29;;;;;;;3.97;3.60;;;;;;;8.97;63.43;102876.00;5074751;28;20043;-79
2022/04/27 09:51:55;;;;;;;3.90;3.55;;;;;;;8.95;63.70;102878.63;5077734;28;20040;-79
2022/04/27 09:54:23;;;;;;;3.72;3.20;;;;;;;8.96;63.95;102875.09;5055826;28;20025;-79
2022/04/27 09:57:01;;;;;;;5.72;3.67;;;;;;;8.98;64.35;102875.97;5078255;28;20041;-79
2022/04/27 09:59:32;;;;;;;3.70;3.35;;;;;;;9.00;64.34;102868.13;5058937;28;20119;-79
2022/04/27 10:02:00;;;;;;;5.25;3.28;;;;;;;9.03;64.25;102873.38;5059697;28;20213;-79
2022/04/27 10:04:28;;;;;;;4.75;3.30;;;;;;;9.04;64.24;102869.91;5070208;28;20044;-79
2022/04/27 10:07:00;;;;;;;3.55;3.25;;;;;;;9.05;63.93;102865.53;5074612;28;20051;-79
2022/04/27 10:09:27;;;;;;;4.10;2.92;;;;;;;9.03;63.96;102860.31;5059020;28;20024;-78
2022/04/27 10:11:58;;;;;;;3.53;2.90;;;;;;;9.07;64.08;102864.63;5063039;28;20280;-79
2022/04/27 10:14:26;;;;;;;5.82;2.97;;;;;;;9.09;64.01;102867.25;5077068;28;20306;-79
2022/04/27 10:16:52;;;;;;;5.05;3.60;;;;;;;9.10;64.01;102863.78;5071644;28;20028;-79
2022/04/27 10:19:18;;;;;;;4.82;3.35;;;;;;;9.10;64.17;102859.41;5076688;28;20044;-79
2022/04/27 10:21:57;;;;;;;7.28;2.83;;;;;;;9.12;63.94;102860.28;5065861;28;20058;-79
2022/04/27 10:24:35;;;;;;;3.70;3.20;;;;;;;9.12;63.67;102859.41;5070119;28;20040;-79
2022/04/27 10:27:18;;;;;;;3.13;2.65;;;;;;;9.17;64.02;102868.13;5076411;28;20036;-79
2022/04/27 10:29:51;;;;;;;4.30;2.80;;;;;;;9.16;63.99;102863.75;5077280;28;20342;-78
2022/04/27 10:32:35;;;;;;;3.15;2.85;;;;;;;9.17;63.90;102866.38;5051396;28;20240;-79
2022/04/27 10:35:14;;;;;;;4.22;2.58;;;;;;;9.18;63.63;102862.00;5063197;28;20040;-79
2022/04/27 10:37:48;;;;;;;;;;;;;;;9.19;64.08;102869.00;5057838;28;20032;-79
2022/04/27 10:40:29;;;;;;;9.25;2.60;;;;;;;9.20;64.32;102869.00;5069049;28;19927;-78
2022/04/27 10:43:00;;;;;;;3.97;2.80;;;;;;;9.19;64.27;102862.00;5073854;28;20077;-78
2022/04/27 10:45:27;;;;;;;4.07;2.72;;;;;;;9.21;64.36;102865.47;5055343;28;20237;-78
2022/04/27 10:47:53;;;;;;;6.28;3.28;;;;;;;9.25;64.61;102862.88;5049433;28;20029;-78
2022/04/27 10:50:20;;;;;;;3.15;2.92;;;;;;;9.27;64.78;102859.38;5049152;28;20463;-79
2022/04/27 10:52:55;;;;;;;2.80;2.47;;;;;;;9.31;64.46;102862.84;5054200;28;20100;-79
2022/04/27 10:55:35;;;;;;;6.75;2.88;;;;;;;9.32;63.82;102861.97;5051802;28;20422;-78
2022/04/27 10:58:10;;;;;;;6.10;2.40;;;;;;;9.32;64.96;102864.59;5050916;28;20037;-79
2022/04/27 11:00:56;;;;;;;6.55;2.47;;;;;;;9.32;65.42;102865.44;5055860;28;20431;-79
2022/04/27 11:03:22;;;;;;;3.50;1.77;;;;;;;9.33;65.78;102877.66;5056218;28;20064;-78
2022/04/27 11:05:47;;;;;;;5.35;2.20;;;;;;;9.30;66.02;102877.66;5055496;28;20272;-79
2022/04/27 11:08:25;;;;;;;4.32;2.35;;;;;;;9.33;66.02;102876.78;5054643;28;20041;-78
2022/04/27 11:10:54;;;;;;;4.75;2.17;;;;;;;9.33;66.19;102871.53;5047129;28;20040;-78
2022/04/27 11:13:25;;;;;;;;;;;;;;;9.30;66.78;102877.66;5056738;28;20032;-79
2022/04/27 11:15:51;;;;;;;2.92;1.83;;;;;;;9.32;66.59;102873.31;5057009;28;19925;-79
2022/04/27 11:18:16;;;;;;;8.00;2.47;;;;;;;9.31;66.62;102871.53;5056804;28;20190;-78
2022/04/27 11:20:43;;;;;;;4.35;2.33;;;;;;;9.35;66.52;102870.69;5055951;28;20459;-79
2022/04/27 11:23:22;;;;;;;5.32;2.10;;;;;;;9.32;66.16;102880.28;5056228;28;20040;-78
2022/04/27 11:25:51;;;;;;;3.28;2.03;;;;;;;9.30;66.74;102875.06;5056960;28;20086;-79
2022/04/27 11:28:18;;;;;;;3.17;1.95;;;;;;;9.31;65.94;102870.69;5055033;28;20102;-79
2022/04/27 11:30:44;;;;;;;6.68;2.47;;;;;;;9.30;65.89;102872.44;5057738;28;20064;-79
2022/04/27 11:33:11;;;;;;;4.10;1.75;;;;;;;9.33;65.84;102871.53;5055371;28;20081;-79
2022/04/27 11:35:44;;;;;;;6.05;1.90;;;;;;;9.34;65.89;102875.91;5051413;28;20094;-79
2022/04/27 11:38:15;;;;;;;5.20;2.15;;;;;;;9.33;66.17;102869.81;5038843;28;20216;-79
2022/04/27 11:40:41;;;;;;;4.75;2.05;;;;;;;9.35;65.81;102872.41;5032967;28;20033;-78
2022/04/27 11:43:06;;;;;;;9.48;1.98;;;;;;;9.36;65.82;102872.41;5032200;28;20288;-79
2022/04/27 11:45:32;;;;;;;7.28;2.35;;;;;;;9.37;65.46;102878.53;5041559;28;20383;-79
2022/04/27 11:48:10;;;;;;;9.23;2.20;;;;;;;9.38;65.50;102870.66;5041152;28;20037;-79
2022/04/27 11:50:38;;;;;;;3.15;1.70;;;;;;;9.39;65.94;102880.25;5048814;28;20036;-79
2022/04/27 11:53:04;;;;;;;5.03;1.88;;;;;;;9.42;65.29;102881.97;5055820;28;20039;-79